Zelienople, Pennsylvania
Current Conditions -  °F | °C
As of 8:35 PM on Monday 22 Dec 2014 (Local Time) from KBTP Reporting Station
Overcast Overcast  
Wind Chill: 27°   Ceiling: 2800
Heat Index: 36°   Visibility: 10mi
Dew Point: 30°   Wind: 13mph
Humidity: 81%   Direction: 90°E
Pressure: 29.98"   Gusts: NA
Location:  40.79°N, 80.14°W
Report Text: KBTP 230135Z AUTO 09011KT 10SM OVC028 02/M01 A2998 RMK AO1
Loading
Personal Weather Stations






























Interactive Weather Map New forecast layout! Learn more

10-Day Weather Forecast

Advertisements
Track Severe Weather on mobile